sensor_id;sensor_type;location;lat;lon;timestamp;P1;durP1;ratioP1;P2;durP2;ratioP2
3261;SDS011;1643;47.746;9.000;2024-01-30T00:01:28;9.30;;;6.43;;
3261;SDS011;1643;47.746;9.000;2024-01-30T00:03:53;8.90;;;6.93;;
3261;SDS011;1643;47.746;9.000;2024-01-30T00:06:19;9.53;;;6.90;;
3261;SDS011;1643;47.746;9.000;2024-01-30T00:08:48;12.27;;;6.60;;
3261;SDS011;1643;47.746;9.000;2024-01-30T00:11:15;11.43;;;6.47;;
3261;SDS011;1643;47.746;9.000;2024-01-30T00:13:41;9.50;;;7.40;;
3261;SDS011;1643;47.746;9.000;2024-01-30T00:16:07;6.50;;;5.23;;
3261;SDS011;1643;47.746;9.000;2024-01-30T00:18:34;9.10;;;7.07;;
3261;SDS011;1643;47.746;9.000;2024-01-30T00:20:59;9.40;;;6.57;;
3261;SDS011;1643;47.746;9.000;2024-01-30T00:23:25;9.23;;;7.23;;
3261;SDS011;1643;47.746;9.000;2024-01-30T00:25:51;8.37;;;6.10;;
3261;SDS011;1643;47.746;9.000;2024-01-30T00:28:16;13.27;;;6.97;;
3261;SDS011;1643;47.746;9.000;2024-01-30T00:30:42;9.20;;;6.30;;
3261;SDS011;1643;47.746;9.000;2024-01-30T00:33:08;8.23;;;6.30;;
3261;SDS011;1643;47.746;9.000;2024-01-30T00:35:34;9.90;;;6.90;;
3261;SDS011;1643;47.746;9.000;2024-01-30T00:38:00;9.20;;;7.20;;
3261;SDS011;1643;47.746;9.000;2024-01-30T00:40:25;10.57;;;6.10;;
3261;SDS011;1643;47.746;9.000;2024-01-30T00:42:51;9.00;;;6.47;;
3261;SDS011;1643;47.746;9.000;2024-01-30T00:45:17;10.23;;;6.40;;
3261;SDS011;1643;47.746;9.000;2024-01-30T00:47:43;7.27;;;5.87;;
3261;SDS011;1643;47.746;9.000;2024-01-30T00:50:09;9.33;;;7.43;;
3261;SDS011;1643;47.746;9.000;2024-01-30T00:52:35;7.43;;;5.20;;
3261;SDS011;1643;47.746;9.000;2024-01-30T00:55:00;6.43;;;5.60;;
3261;SDS011;1643;47.746;9.000;2024-01-30T00:57:27;7.13;;;6.20;;
3261;SDS011;1643;47.746;9.000;2024-01-30T00:59:53;5.87;;;5.23;;
3261;SDS011;1643;47.746;9.000;2024-01-30T01:02:18;10.33;;;6.23;;
3261;SDS011;1643;47.746;9.000;2024-01-30T01:04:44;8.60;;;6.73;;
3261;SDS011;1643;47.746;9.000;2024-01-30T01:07:10;7.87;;;5.80;;
3261;SDS011;1643;47.746;9.000;2024-01-30T01:09:36;7.97;;;6.90;;
3261;SDS011;1643;47.746;9.000;2024-01-30T01:12:02;9.40;;;5.50;;
3261;SDS011;1643;47.746;9.000;2024-01-30T01:14:38;7.90;;;6.30;;
3261;SDS011;1643;47.746;9.000;2024-01-30T01:17:04;7.23;;;6.10;;
3261;SDS011;1643;47.746;9.000;2024-01-30T01:19:29;8.57;;;6.37;;
3261;SDS011;1643;47.746;9.000;2024-01-30T01:21:55;7.23;;;6.30;;
3261;SDS011;1643;47.746;9.000;2024-01-30T01:24:21;10.67;;;7.00;;
3261;SDS011;1643;47.746;9.000;2024-01-30T01:26:47;8.40;;;6.20;;
3261;SDS011;1643;47.746;9.000;2024-01-30T01:29:12;11.23;;;6.07;;
3261;SDS011;1643;47.746;9.000;2024-01-30T01:31:38;8.07;;;5.60;;
3261;SDS011;1643;47.746;9.000;2024-01-30T01:34:08;19.10;;;5.43;;
3261;SDS011;1643;47.746;9.000;2024-01-30T01:36:37;5.87;;;4.80;;
3261;SDS011;1643;47.746;9.000;2024-01-30T01:39:04;6.57;;;5.33;;
3261;SDS011;1643;47.746;9.000;2024-01-30T01:41:30;6.00;;;4.70;;
3261;SDS011;1643;47.746;9.000;2024-01-30T01:43:57;5.63;;;4.30;;
3261;SDS011;1643;47.746;9.000;2024-01-30T01:46:23;5.80;;;4.57;;
3261;SDS011;1643;47.746;9.000;2024-01-30T01:48:48;4.87;;;4.37;;
3261;SDS011;1643;47.746;9.000;2024-01-30T01:51:14;10.37;;;5.43;;
3261;SDS011;1643;47.746;9.000;2024-01-30T01:53:41;6.30;;;5.37;;
3261;SDS011;1643;47.746;9.000;2024-01-30T01:56:07;6.53;;;5.03;;
3261;SDS011;1643;47.746;9.000;2024-01-30T01:58:33;7.80;;;5.30;;
3261;SDS011;1643;47.746;9.000;2024-01-30T02:00:59;5.70;;;3.93;;
3261;SDS011;1643;47.746;9.000;2024-01-30T02:03:25;8.90;;;5.40;;
3261;SDS011;1643;47.746;9.000;2024-01-30T02:05:50;8.67;;;6.17;;
3261;SDS011;1643;47.746;9.000;2024-01-30T02:08:17;10.80;;;5.63;;
3261;SDS011;1643;47.746;9.000;2024-01-30T02:10:42;8.20;;;5.27;;
3261;SDS011;1643;47.746;9.000;2024-01-30T02:13:08;7.67;;;5.13;;
3261;SDS011;1643;47.746;9.000;2024-01-30T02:15:33;16.20;;;6.50;;
3261;SDS011;1643;47.746;9.000;2024-01-30T02:17:59;7.97;;;5.80;;
3261;SDS011;1643;47.746;9.000;2024-01-30T02:20:25;7.93;;;6.50;;
3261;SDS011;1643;47.746;9.000;2024-01-30T02:22:52;6.03;;;5.10;;
3261;SDS011;1643;47.746;9.000;2024-01-30T02:25:29;8.10;;;4.43;;
3261;SDS011;1643;47.746;9.000;2024-01-30T02:28:09;10.40;;;4.83;;
3261;SDS011;1643;47.746;9.000;2024-01-30T02:30:36;6.53;;;5.17;;
3261;SDS011;1643;47.746;9.000;2024-01-30T02:33:01;7.23;;;5.07;;
3261;SDS011;1643;47.746;9.000;2024-01-30T02:35:27;5.93;;;4.90;;
3261;SDS011;1643;47.746;9.000;2024-01-30T02:37:53;7.60;;;5.20;;
3261;SDS011;1643;47.746;9.000;2024-01-30T02:40:18;6.70;;;5.30;;
3261;SDS011;1643;47.746;9.000;2024-01-30T02:42:44;7.00;;;5.17;;
3261;SDS011;1643;47.746;9.000;2024-01-30T02:45:10;6.50;;;4.93;;
3261;SDS011;1643;47.746;9.000;2024-01-30T02:47:36;4.80;;;4.13;;
3261;SDS011;1643;47.746;9.000;2024-01-30T02:50:02;6.27;;;4.73;;
3261;SDS011;1643;47.746;9.000;2024-01-30T02:52:27;5.57;;;4.83;;
3261;SDS011;1643;47.746;9.000;2024-01-30T02:54:53;8.60;;;6.00;;
3261;SDS011;1643;47.746;9.000;2024-01-30T02:57:19;6.57;;;4.70;;
3261;SDS011;1643;47.746;9.000;2024-01-30T02:59:44;7.30;;;4.80;;
3261;SDS011;1643;47.746;9.000;2024-01-30T03:02:10;5.07;;;4.23;;
3261;SDS011;1643;47.746;9.000;2024-01-30T03:04:36;7.77;;;4.90;;
3261;SDS011;1643;47.746;9.000;2024-01-30T03:07:01;5.67;;;4.37;;
3261;SDS011;1643;47.746;9.000;2024-01-30T03:09:27;6.70;;;5.20;;
3261;SDS011;1643;47.746;9.000;2024-01-30T03:11:52;7.20;;;4.17;;
3261;SDS011;1643;47.746;9.000;2024-01-30T03:14:18;6.10;;;4.57;;
3261;SDS011;1643;47.746;9.000;2024-01-30T03:16:44;5.07;;;4.03;;
3261;SDS011;1643;47.746;9.000;2024-01-30T03:19:09;5.80;;;4.30;;
3261;SDS011;1643;47.746;9.000;2024-01-30T03:21:35;5.37;;;3.90;;
3261;SDS011;1643;47.746;9.000;2024-01-30T03:24:00;4.97;;;4.47;;
3261;SDS011;1643;47.746;9.000;2024-01-30T03:26:26;6.20;;;4.53;;
3261;SDS011;1643;47.746;9.000;2024-01-30T03:28:52;5.43;;;4.33;;
3261;SDS011;1643;47.746;9.000;2024-01-30T03:31:17;5.10;;;4.00;;
3261;SDS011;1643;47.746;9.000;2024-01-30T03:33:43;7.10;;;4.47;;
3261;SDS011;1643;47.746;9.000;2024-01-30T03:36:09;4.60;;;4.20;;
3261;SDS011;1643;47.746;9.000;2024-01-30T03:38:36;4.47;;;3.80;;
3261;SDS011;1643;47.746;9.000;2024-01-30T03:41:02;8.20;;;4.40;;
3261;SDS011;1643;47.746;9.000;2024-01-30T03:43:28;6.90;;;5.67;;
3261;SDS011;1643;47.746;9.000;2024-01-30T03:45:53;4.60;;;4.10;;
3261;SDS011;1643;47.746;9.000;2024-01-30T03:48:20;4.97;;;4.23;;
3261;SDS011;1643;47.746;9.000;2024-01-30T03:50:46;7.30;;;4.70;;
3261;SDS011;1643;47.746;9.000;2024-01-30T03:53:12;4.67;;;3.60;;
3261;SDS011;1643;47.746;9.000;2024-01-30T03:55:37;4.10;;;3.80;;
3261;SDS011;1643;47.746;9.000;2024-01-30T03:58:03;5.57;;;4.60;;
3261;SDS011;1643;47.746;9.000;2024-01-30T04:00:29;5.33;;;4.53;;
3261;SDS011;1643;47.746;9.000;2024-01-30T04:02:54;5.30;;;3.90;;
3261;SDS011;1643;47.746;9.000;2024-01-30T04:05:20;6.70;;;4.63;;
3261;SDS011;1643;47.746;9.000;2024-01-30T04:07:46;6.47;;;5.00;;
3261;SDS011;1643;47.746;9.000;2024-01-30T04:10:11;7.17;;;5.63;;
3261;SDS011;1643;47.746;9.000;2024-01-30T04:12:37;7.10;;;5.53;;
3261;SDS011;1643;47.746;9.000;2024-01-30T04:15:02;5.70;;;5.10;;
3261;SDS011;1643;47.746;9.000;2024-01-30T04:17:29;6.80;;;5.47;;
3261;SDS011;1643;47.746;9.000;2024-01-30T04:19:54;6.87;;;5.20;;
3261;SDS011;1643;47.746;9.000;2024-01-30T04:22:20;5.63;;;5.03;;
3261;SDS011;1643;47.746;9.000;2024-01-30T04:24:46;6.33;;;5.23;;
3261;SDS011;1643;47.746;9.000;2024-01-30T04:27:12;5.83;;;5.00;;
3261;SDS011;1643;47.746;9.000;2024-01-30T04:29:37;6.30;;;4.77;;
3261;SDS011;1643;47.746;9.000;2024-01-30T04:32:03;6.80;;;5.43;;
3261;SDS011;1643;47.746;9.000;2024-01-30T04:34:29;6.47;;;5.63;;
3261;SDS011;1643;47.746;9.000;2024-01-30T04:36:55;7.53;;;5.27;;
3261;SDS011;1643;47.746;9.000;2024-01-30T04:39:21;5.90;;;4.90;;
3261;SDS011;1643;47.746;9.000;2024-01-30T04:41:46;5.73;;;4.57;;
3261;SDS011;1643;47.746;9.000;2024-01-30T04:44:13;5.33;;;4.73;;
3261;SDS011;1643;47.746;9.000;2024-01-30T04:46:39;7.27;;;5.70;;
3261;SDS011;1643;47.746;9.000;2024-01-30T04:49:04;6.00;;;4.90;;
3261;SDS011;1643;47.746;9.000;2024-01-30T04:51:32;6.17;;;4.67;;
3261;SDS011;1643;47.746;9.000;2024-01-30T04:53:58;5.03;;;4.53;;
3261;SDS011;1643;47.746;9.000;2024-01-30T04:56:24;6.53;;;5.07;;
3261;SDS011;1643;47.746;9.000;2024-01-30T04:58:50;7.93;;;4.20;;
3261;SDS011;1643;47.746;9.000;2024-01-30T05:01:16;5.37;;;4.10;;
3261;SDS011;1643;47.746;9.000;2024-01-30T05:03:42;5.00;;;4.07;;
3261;SDS011;1643;47.746;9.000;2024-01-30T05:06:08;8.43;;;5.53;;
3261;SDS011;1643;47.746;9.000;2024-01-30T05:08:33;7.47;;;5.43;;
3261;SDS011;1643;47.746;9.000;2024-01-30T05:11:01;6.17;;;5.53;;
3261;SDS011;1643;47.746;9.000;2024-01-30T05:13:29;5.53;;;4.43;;
3261;SDS011;1643;47.746;9.000;2024-01-30T05:15:55;5.57;;;4.40;;
3261;SDS011;1643;47.746;9.000;2024-01-30T05:18:21;6.30;;;4.77;;
3261;SDS011;1643;47.746;9.000;2024-01-30T05:20:46;5.40;;;4.60;;
3261;SDS011;1643;47.746;9.000;2024-01-30T05:23:12;5.63;;;3.97;;
3261;SDS011;1643;47.746;9.000;2024-01-30T05:25:38;6.00;;;4.93;;
3261;SDS011;1643;47.746;9.000;2024-01-30T05:28:03;7.17;;;3.87;;
3261;SDS011;1643;47.746;9.000;2024-01-30T05:30:29;4.97;;;3.80;;
3261;SDS011;1643;47.746;9.000;2024-01-30T05:32:55;6.30;;;4.60;;
3261;SDS011;1643;47.746;9.000;2024-01-30T05:35:21;7.90;;;5.23;;
3261;SDS011;1643;47.746;9.000;2024-01-30T05:37:47;7.87;;;5.00;;
3261;SDS011;1643;47.746;9.000;2024-01-30T05:40:14;5.57;;;5.00;;
3261;SDS011;1643;47.746;9.000;2024-01-30T05:42:40;5.00;;;4.37;;
3261;SDS011;1643;47.746;9.000;2024-01-30T05:45:06;6.27;;;5.57;;
3261;SDS011;1643;47.746;9.000;2024-01-30T05:47:32;7.10;;;5.87;;
3261;SDS011;1643;47.746;9.000;2024-01-30T05:49:58;8.73;;;5.30;;
3261;SDS011;1643;47.746;9.000;2024-01-30T05:52:24;11.63;;;5.13;;
3261;SDS011;1643;47.746;9.000;2024-01-30T05:54:50;4.47;;;3.87;;
3261;SDS011;1643;47.746;9.000;2024-01-30T05:57:16;7.13;;;5.13;;
3261;SDS011;1643;47.746;9.000;2024-01-30T05:59:41;4.07;;;3.73;;
3261;SDS011;1643;47.746;9.000;2024-01-30T06:02:09;7.03;;;5.07;;
3261;SDS011;1643;47.746;9.000;2024-01-30T06:04:36;4.30;;;3.83;;
3261;SDS011;1643;47.746;9.000;2024-01-30T06:07:01;5.70;;;4.60;;
3261;SDS011;1643;47.746;9.000;2024-01-30T06:09:27;5.30;;;4.20;;
3261;SDS011;1643;47.746;9.000;2024-01-30T06:11:54;5.60;;;4.60;;
3261;SDS011;1643;47.746;9.000;2024-01-30T06:14:19;5.53;;;4.10;;
3261;SDS011;1643;47.746;9.000;2024-01-30T06:16:45;4.93;;;4.43;;
3261;SDS011;1643;47.746;9.000;2024-01-30T06:19:11;6.83;;;5.07;;
3261;SDS011;1643;47.746;9.000;2024-01-30T06:21:37;8.80;;;4.93;;
3261;SDS011;1643;47.746;9.000;2024-01-30T06:24:03;4.87;;;4.33;;
3261;SDS011;1643;47.746;9.000;2024-01-30T06:26:29;5.97;;;4.10;;
3261;SDS011;1643;47.746;9.000;2024-01-30T06:28:55;6.13;;;4.70;;
3261;SDS011;1643;47.746;9.000;2024-01-30T06:31:20;6.63;;;5.10;;
3261;SDS011;1643;47.746;9.000;2024-01-30T06:33:47;6.10;;;5.50;;
3261;SDS011;1643;47.746;9.000;2024-01-30T06:36:12;6.00;;;4.87;;
3261;SDS011;1643;47.746;9.000;2024-01-30T06:38:38;7.70;;;5.50;;
3261;SDS011;1643;47.746;9.000;2024-01-30T06:41:04;4.80;;;4.30;;
3261;SDS011;1643;47.746;9.000;2024-01-30T06:43:29;5.17;;;4.63;;
3261;SDS011;1643;47.746;9.000;2024-01-30T06:45:55;4.87;;;4.40;;
3261;SDS011;1643;47.746;9.000;2024-01-30T06:48:21;8.50;;;5.23;;
3261;SDS011;1643;47.746;9.000;2024-01-30T06:50:46;5.57;;;4.23;;
3261;SDS011;1643;47.746;9.000;2024-01-30T06:53:13;8.17;;;6.00;;
3261;SDS011;1643;47.746;9.000;2024-01-30T06:55:38;6.27;;;4.87;;
3261;SDS011;1643;47.746;9.000;2024-01-30T06:58:04;7.10;;;3.93;;
3261;SDS011;1643;47.746;9.000;2024-01-30T07:00:29;7.53;;;4.70;;
3261;SDS011;1643;47.746;9.000;2024-01-30T07:02:56;9.70;;;5.30;;
3261;SDS011;1643;47.746;9.000;2024-01-30T07:05:21;19.73;;;6.30;;
3261;SDS011;1643;47.746;9.000;2024-01-30T07:07:47;7.80;;;5.03;;
3261;SDS011;1643;47.746;9.000;2024-01-30T07:10:13;6.40;;;5.13;;
3261;SDS011;1643;47.746;9.000;2024-01-30T07:12:38;8.33;;;5.87;;
3261;SDS011;1643;47.746;9.000;2024-01-30T07:15:04;9.23;;;5.53;;
3261;SDS011;1643;47.746;9.000;2024-01-30T07:17:33;7.67;;;5.67;;
3261;SDS011;1643;47.746;9.000;2024-01-30T07:19:59;6.70;;;5.47;;
3261;SDS011;1643;47.746;9.000;2024-01-30T07:22:24;6.10;;;4.80;;
3261;SDS011;1643;47.746;9.000;2024-01-30T07:24:50;7.60;;;5.27;;
3261;SDS011;1643;47.746;9.000;2024-01-30T07:27:17;8.43;;;5.73;;
3261;SDS011;1643;47.746;9.000;2024-01-30T07:29:43;5.80;;;4.30;;
3261;SDS011;1643;47.746;9.000;2024-01-30T07:32:09;8.37;;;5.00;;
3261;SDS011;1643;47.746;9.000;2024-01-30T07:34:34;6.27;;;5.10;;
3261;SDS011;1643;47.746;9.000;2024-01-30T07:37:01;7.80;;;6.63;;
3261;SDS011;1643;47.746;9.000;2024-01-30T07:39:27;7.30;;;5.47;;
3261;SDS011;1643;47.746;9.000;2024-01-30T07:41:53;9.80;;;6.37;;
3261;SDS011;1643;47.746;9.000;2024-01-30T07:44:19;13.00;;;8.57;;
3261;SDS011;1643;47.746;9.000;2024-01-30T07:46:45;36.77;;;7.83;;
3261;SDS011;1643;47.746;9.000;2024-01-30T07:49:10;11.57;;;6.20;;
3261;SDS011;1643;47.746;9.000;2024-01-30T07:51:36;12.70;;;7.50;;
3261;SDS011;1643;47.746;9.000;2024-01-30T07:54:02;8.13;;;6.00;;
3261;SDS011;1643;47.746;9.000;2024-01-30T07:56:27;8.53;;;6.17;;
3261;SDS011;1643;47.746;9.000;2024-01-30T07:58:53;5.30;;;4.70;;
3261;SDS011;1643;47.746;9.000;2024-01-30T08:01:19;7.37;;;5.00;;
3261;SDS011;1643;47.746;9.000;2024-01-30T08:03:44;12.00;;;7.90;;
3261;SDS011;1643;47.746;9.000;2024-01-30T08:06:10;9.20;;;7.80;;
3261;SDS011;1643;47.746;9.000;2024-01-30T08:08:35;12.87;;;8.70;;
3261;SDS011;1643;47.746;9.000;2024-01-30T08:11:02;6.40;;;4.87;;
3261;SDS011;1643;47.746;9.000;2024-01-30T08:13:28;6.83;;;5.17;;
3261;SDS011;1643;47.746;9.000;2024-01-30T08:15:54;7.70;;;5.50;;
3261;SDS011;1643;47.746;9.000;2024-01-30T08:18:19;5.80;;;5.20;;
3261;SDS011;1643;47.746;9.000;2024-01-30T08:20:45;6.70;;;5.00;;
3261;SDS011;1643;47.746;9.000;2024-01-30T08:23:11;6.93;;;5.23;;
3261;SDS011;1643;47.746;9.000;2024-01-30T08:25:36;10.07;;;4.83;;
3261;SDS011;1643;47.746;9.000;2024-01-30T08:28:02;8.97;;;5.03;;
3261;SDS011;1643;47.746;9.000;2024-01-30T08:30:29;7.00;;;5.30;;
3261;SDS011;1643;47.746;9.000;2024-01-30T08:32:54;11.40;;;6.20;;
3261;SDS011;1643;47.746;9.000;2024-01-30T08:35:20;11.40;;;4.90;;
3261;SDS011;1643;47.746;9.000;2024-01-30T08:37:45;7.73;;;5.60;;
3261;SDS011;1643;47.746;9.000;2024-01-30T08:40:11;9.60;;;6.00;;
3261;SDS011;1643;47.746;9.000;2024-01-30T08:42:37;17.50;;;8.77;;
3261;SDS011;1643;47.746;9.000;2024-01-30T08:45:02;13.00;;;6.30;;
3261;SDS011;1643;47.746;9.000;2024-01-30T08:47:29;8.07;;;6.47;;
3261;SDS011;1643;47.746;9.000;2024-01-30T08:49:55;14.63;;;6.90;;
3261;SDS011;1643;47.746;9.000;2024-01-30T08:52:21;36.63;;;8.90;;
3261;SDS011;1643;47.746;9.000;2024-01-30T08:54:47;20.30;;;7.87;;
3261;SDS011;1643;47.746;9.000;2024-01-30T08:57:12;9.73;;;6.87;;
3261;SDS011;1643;47.746;9.000;2024-01-30T08:59:38;11.93;;;7.10;;
3261;SDS011;1643;47.746;9.000;2024-01-30T09:02:04;15.53;;;7.00;;
3261;SDS011;1643;47.746;9.000;2024-01-30T09:04:30;13.87;;;6.63;;
3261;SDS011;1643;47.746;9.000;2024-01-30T09:06:55;12.37;;;6.90;;
3261;SDS011;1643;47.746;9.000;2024-01-30T09:09:22;41.37;;;9.73;;
3261;SDS011;1643;47.746;9.000;2024-01-30T09:11:47;11.40;;;7.93;;
3261;SDS011;1643;47.746;9.000;2024-01-30T09:14:13;14.50;;;7.80;;
3261;SDS011;1643;47.746;9.000;2024-01-30T09:16:39;10.27;;;7.40;;
3261;SDS011;1643;47.746;9.000;2024-01-30T09:19:04;10.43;;;6.80;;
3261;SDS011;1643;47.746;9.000;2024-01-30T09:21:30;18.50;;;10.73;;
3261;SDS011;1643;47.746;9.000;2024-01-30T09:24:01;18.23;;;10.57;;
3261;SDS011;1643;47.746;9.000;2024-01-30T09:26:30;20.47;;;9.77;;
3261;SDS011;1643;47.746;9.000;2024-01-30T09:28:56;16.93;;;7.80;;
3261;SDS011;1643;47.746;9.000;2024-01-30T09:31:21;11.70;;;8.00;;
3261;SDS011;1643;47.746;9.000;2024-01-30T09:33:47;23.40;;;10.00;;
3261;SDS011;1643;47.746;9.000;2024-01-30T09:36:14;11.33;;;6.50;;
3261;SDS011;1643;47.746;9.000;2024-01-30T09:38:44;20.23;;;8.27;;
3261;SDS011;1643;47.746;9.000;2024-01-30T09:41:10;13.83;;;7.80;;
3261;SDS011;1643;47.746;9.000;2024-01-30T09:43:36;10.80;;;6.27;;
3261;SDS011;1643;47.746;9.000;2024-01-30T09:46:04;14.07;;;7.17;;
3261;SDS011;1643;47.746;9.000;2024-01-30T09:48:33;13.80;;;7.70;;
3261;SDS011;1643;47.746;9.000;2024-01-30T09:50:59;11.47;;;7.37;;
3261;SDS011;1643;47.746;9.000;2024-01-30T09:53:25;14.90;;;6.70;;
3261;SDS011;1643;47.746;9.000;2024-01-30T09:55:51;11.80;;;7.03;;
3261;SDS011;1643;47.746;9.000;2024-01-30T09:58:17;15.60;;;7.50;;
3261;SDS011;1643;47.746;9.000;2024-01-30T10:00:42;12.63;;;7.03;;
3261;SDS011;1643;47.746;9.000;2024-01-30T10:03:08;9.30;;;6.10;;
3261;SDS011;1643;47.746;9.000;2024-01-30T10:05:35;9.90;;;6.43;;
3261;SDS011;1643;47.746;9.000;2024-01-30T10:08:07;12.23;;;8.37;;
3261;SDS011;1643;47.746;9.000;2024-01-30T10:10:33;10.70;;;7.70;;
3261;SDS011;1643;47.746;9.000;2024-01-30T10:13:00;12.97;;;7.73;;
3261;SDS011;1643;47.746;9.000;2024-01-30T10:15:25;8.10;;;6.23;;
3261;SDS011;1643;47.746;9.000;2024-01-30T10:17:53;8.00;;;6.30;;
3261;SDS011;1643;47.746;9.000;2024-01-30T10:20:19;12.07;;;7.80;;
3261;SDS011;1643;47.746;9.000;2024-01-30T10:22:47;14.03;;;7.90;;
3261;SDS011;1643;47.746;9.000;2024-01-30T10:25:13;9.00;;;6.70;;
3261;SDS011;1643;47.746;9.000;2024-01-30T10:27:39;9.60;;;6.67;;
3261;SDS011;1643;47.746;9.000;2024-01-30T10:30:05;9.77;;;7.40;;
3261;SDS011;1643;47.746;9.000;2024-01-30T10:32:32;13.83;;;7.50;;
3261;SDS011;1643;47.746;9.000;2024-01-30T10:34:58;13.93;;;7.50;;
3261;SDS011;1643;47.746;9.000;2024-01-30T10:37:24;12.70;;;7.47;;
3261;SDS011;1643;47.746;9.000;2024-01-30T10:39:50;8.97;;;6.37;;
3261;SDS011;1643;47.746;9.000;2024-01-30T10:42:18;11.13;;;6.93;;
3261;SDS011;1643;47.746;9.000;2024-01-30T10:47:30;13.30;;;7.80;;
3261;SDS011;1643;47.746;9.000;2024-01-30T10:49:59;10.37;;;6.50;;
3261;SDS011;1643;47.746;9.000;2024-01-30T10:52:25;10.90;;;6.93;;
3261;SDS011;1643;47.746;9.000;2024-01-30T10:54:53;12.30;;;7.83;;
3261;SDS011;1643;47.746;9.000;2024-01-30T10:57:19;9.80;;;7.50;;
3261;SDS011;1643;47.746;9.000;2024-01-30T10:59:48;11.80;;;7.23;;
3261;SDS011;1643;47.746;9.000;2024-01-30T11:02:15;14.10;;;8.20;;
3261;SDS011;1643;47.746;9.000;2024-01-30T11:04:41;9.57;;;6.90;;
3261;SDS011;1643;47.746;9.000;2024-01-30T11:07:13;12.37;;;7.60;;
3261;SDS011;1643;47.746;9.000;2024-01-30T11:10:15;10.13;;;7.20;;
3261;SDS011;1643;47.746;9.000;2024-01-30T11:12:38;10.70;;;7.90;;
3261;SDS011;1643;47.746;9.000;2024-01-30T11:15:09;17.47;;;8.23;;
3261;SDS011;1643;47.746;9.000;2024-01-30T11:17:40;11.03;;;6.87;;
3261;SDS011;1643;47.746;9.000;2024-01-30T11:20:25;11.00;;;6.73;;
3261;SDS011;1643;47.746;9.000;2024-01-30T11:22:58;13.43;;;9.07;;
3261;SDS011;1643;47.746;9.000;2024-01-30T11:25:25;11.50;;;7.80;;
3261;SDS011;1643;47.746;9.000;2024-01-30T11:27:52;11.63;;;7.20;;
3261;SDS011;1643;47.746;9.000;2024-01-30T11:30:25;10.93;;;7.30;;
3261;SDS011;1643;47.746;9.000;2024-01-30T11:38:06;10.90;;;7.93;;
3261;SDS011;1643;47.746;9.000;2024-01-30T11:40:34;10.93;;;8.00;;
3261;SDS011;1643;47.746;9.000;2024-01-30T11:43:01;10.83;;;7.93;;
3261;SDS011;1643;47.746;9.000;2024-01-30T11:45:29;10.63;;;7.20;;
3261;SDS011;1643;47.746;9.000;2024-01-30T11:47:56;12.77;;;9.20;;
3261;SDS011;1643;47.746;9.000;2024-01-30T11:50:22;15.80;;;10.07;;
3261;SDS011;1643;47.746;9.000;2024-01-30T11:52:49;12.40;;;8.10;;
3261;SDS011;1643;47.746;9.000;2024-01-30T11:55:15;11.40;;;8.80;;
3261;SDS011;1643;47.746;9.000;2024-01-30T11:57:42;13.40;;;8.60;;
3261;SDS011;1643;47.746;9.000;2024-01-30T12:00:15;13.10;;;8.77;;
3261;SDS011;1643;47.746;9.000;2024-01-30T12:02:43;11.93;;;7.53;;
3261;SDS011;1643;47.746;9.000;2024-01-30T12:05:09;8.57;;;6.30;;
3261;SDS011;1643;47.746;9.000;2024-01-30T12:07:35;8.90;;;6.90;;
3261;SDS011;1643;47.746;9.000;2024-01-30T12:10:02;8.70;;;6.30;;
3261;SDS011;1643;47.746;9.000;2024-01-30T12:12:28;12.07;;;8.50;;
3261;SDS011;1643;47.746;9.000;2024-01-30T12:14:55;13.60;;;8.80;;
3261;SDS011;1643;47.746;9.000;2024-01-30T12:20:15;14.40;;;8.33;;
3261;SDS011;1643;47.746;9.000;2024-01-30T12:22:44;10.67;;;7.00;;
3261;SDS011;1643;47.746;9.000;2024-01-30T12:25:12;10.13;;;7.00;;
3261;SDS011;1643;47.746;9.000;2024-01-30T12:27:42;11.23;;;7.60;;
3261;SDS011;1643;47.746;9.000;2024-01-30T12:30:09;10.90;;;7.80;;
3261;SDS011;1643;47.746;9.000;2024-01-30T12:32:37;11.17;;;8.40;;
3261;SDS011;1643;47.746;9.000;2024-01-30T12:35:07;10.00;;;7.27;;
3261;SDS011;1643;47.746;9.000;2024-01-30T12:37:36;10.57;;;7.87;;
3261;SDS011;1643;47.746;9.000;2024-01-30T12:40:02;9.60;;;7.43;;
3261;SDS011;1643;47.746;9.000;2024-01-30T12:42:28;11.00;;;7.70;;
3261;SDS011;1643;47.746;9.000;2024-01-30T12:44:56;11.40;;;9.10;;
3261;SDS011;1643;47.746;9.000;2024-01-30T12:47:23;10.70;;;7.83;;
3261;SDS011;1643;47.746;9.000;2024-01-30T12:49:48;9.43;;;7.83;;
3261;SDS011;1643;47.746;9.000;2024-01-30T12:52:15;10.70;;;8.13;;
3261;SDS011;1643;47.746;9.000;2024-01-30T12:54:41;11.63;;;9.00;;
3261;SDS011;1643;47.746;9.000;2024-01-30T12:57:07;13.70;;;8.70;;
3261;SDS011;1643;47.746;9.000;2024-01-30T12:59:34;11.53;;;8.87;;
3261;SDS011;1643;47.746;9.000;2024-01-30T13:02:00;11.13;;;7.90;;
3261;SDS011;1643;47.746;9.000;2024-01-30T13:04:27;10.83;;;8.53;;
3261;SDS011;1643;47.746;9.000;2024-01-30T13:06:52;13.67;;;9.33;;
3261;SDS011;1643;47.746;9.000;2024-01-30T13:09:18;10.73;;;7.83;;
3261;SDS011;1643;47.746;9.000;2024-01-30T13:11:44;12.93;;;8.83;;
3261;SDS011;1643;47.746;9.000;2024-01-30T13:14:10;11.67;;;8.20;;
3261;SDS011;1643;47.746;9.000;2024-01-30T13:16:36;12.53;;;7.60;;
3261;SDS011;1643;47.746;9.000;2024-01-30T13:19:02;10.70;;;7.97;;
3261;SDS011;1643;47.746;9.000;2024-01-30T13:21:28;14.60;;;8.80;;
3261;SDS011;1643;47.746;9.000;2024-01-30T13:23:54;13.83;;;9.53;;
3261;SDS011;1643;47.746;9.000;2024-01-30T13:26:22;12.63;;;9.43;;
3261;SDS011;1643;47.746;9.000;2024-01-30T13:28:48;11.47;;;8.50;;
3261;SDS011;1643;47.746;9.000;2024-01-30T13:31:14;10.40;;;7.13;;
3261;SDS011;1643;47.746;9.000;2024-01-30T13:33:41;13.70;;;8.80;;
3261;SDS011;1643;47.746;9.000;2024-01-30T13:36:07;12.03;;;8.83;;
3261;SDS011;1643;47.746;9.000;2024-01-30T13:38:35;14.50;;;9.57;;
3261;SDS011;1643;47.746;9.000;2024-01-30T13:41:01;11.00;;;8.70;;
3261;SDS011;1643;47.746;9.000;2024-01-30T13:43:27;11.83;;;8.50;;
3261;SDS011;1643;47.746;9.000;2024-01-30T13:45:53;11.90;;;8.90;;
3261;SDS011;1643;47.746;9.000;2024-01-30T13:48:19;14.13;;;9.17;;
3261;SDS011;1643;47.746;9.000;2024-01-30T13:50:44;12.07;;;9.00;;
3261;SDS011;1643;47.746;9.000;2024-01-30T13:53:11;13.10;;;9.00;;
3261;SDS011;1643;47.746;9.000;2024-01-30T13:55:37;11.33;;;8.90;;
3261;SDS011;1643;47.746;9.000;2024-01-30T13:58:04;15.17;;;9.23;;
3261;SDS011;1643;47.746;9.000;2024-01-30T14:00:30;13.70;;;9.70;;
3261;SDS011;1643;47.746;9.000;2024-01-30T14:02:55;9.67;;;7.87;;
3261;SDS011;1643;47.746;9.000;2024-01-30T14:05:23;12.80;;;8.90;;
3261;SDS011;1643;47.746;9.000;2024-01-30T14:07:48;11.97;;;8.17;;
3261;SDS011;1643;47.746;9.000;2024-01-30T14:10:15;11.60;;;8.57;;
3261;SDS011;1643;47.746;9.000;2024-01-30T14:12:41;14.13;;;8.70;;
3261;SDS011;1643;47.746;9.000;2024-01-30T14:15:08;11.90;;;8.23;;
3261;SDS011;1643;47.746;9.000;2024-01-30T14:17:35;14.37;;;9.40;;
3261;SDS011;1643;47.746;9.000;2024-01-30T14:20:01;10.70;;;8.03;;
3261;SDS011;1643;47.746;9.000;2024-01-30T14:22:29;16.07;;;10.70;;
3261;SDS011;1643;47.746;9.000;2024-01-30T14:24:55;12.30;;;9.37;;
3261;SDS011;1643;47.746;9.000;2024-01-30T14:27:21;13.20;;;9.50;;
3261;SDS011;1643;47.746;9.000;2024-01-30T14:29:47;13.30;;;9.47;;
3261;SDS011;1643;47.746;9.000;2024-01-30T14:32:12;15.00;;;10.53;;
3261;SDS011;1643;47.746;9.000;2024-01-30T14:34:38;12.67;;;8.40;;
3261;SDS011;1643;47.746;9.000;2024-01-30T14:37:04;12.00;;;8.80;;
3261;SDS011;1643;47.746;9.000;2024-01-30T14:39:30;14.37;;;9.80;;
3261;SDS011;1643;47.746;9.000;2024-01-30T14:41:56;12.93;;;10.17;;
3261;SDS011;1643;47.746;9.000;2024-01-30T14:44:22;12.77;;;10.17;;
3261;SDS011;1643;47.746;9.000;2024-01-30T14:46:48;13.73;;;10.03;;
3261;SDS011;1643;47.746;9.000;2024-01-30T14:49:14;11.50;;;9.43;;
3261;SDS011;1643;47.746;9.000;2024-01-30T14:51:40;15.10;;;9.23;;
3261;SDS011;1643;47.746;9.000;2024-01-30T14:54:07;13.20;;;10.17;;
3261;SDS011;1643;47.746;9.000;2024-01-30T14:56:32;12.43;;;10.70;;
3261;SDS011;1643;47.746;9.000;2024-01-30T14:58:59;14.27;;;9.97;;
3261;SDS011;1643;47.746;9.000;2024-01-30T15:01:24;10.70;;;8.40;;
3261;SDS011;1643;47.746;9.000;2024-01-30T15:03:50;13.40;;;8.90;;
3261;SDS011;1643;47.746;9.000;2024-01-30T15:06:17;11.77;;;8.93;;
3261;SDS011;1643;47.746;9.000;2024-01-30T15:08:43;13.40;;;10.23;;
3261;SDS011;1643;47.746;9.000;2024-01-30T15:11:08;12.60;;;9.30;;
3261;SDS011;1643;47.746;9.000;2024-01-30T15:13:34;12.83;;;9.00;;